Terminal Aerodrome Forecast
Issued by NWS

Home | Current Version | Previous Version | Text Only | Print | Product List | Glossary On
Versions: 1 2 3 4 5 6 7 8 9 10 11 12 13 14 15 16 17 18 19 20 21 22 23 24 25 26 27 28 29 30 31 32 33 34 35
000
FTUS45 KGJT 222323
TAFEGE
TAF
KEGE 222323Z 2300/2324 26007KT P6SM FEW040 BKN060
     FM230400 11004KT P6SM FEW050 BKN100
     FM231900 23008KT P6SM VCSH OVC080
      AMD LTD TO CLD VIS AND WIND 2302/2313=

USA.gov is the U.S. government's official web portal to all federal, state and local government web resources and services.